createdAt,value
2016-06-03T00:00:50.156Z,1009.56
2016-06-03T00:01:50.174Z,1009.53
2016-06-03T00:02:50.193Z,1009.56
2016-06-03T00:03:50.226Z,1009.54
2016-06-03T00:04:50.244Z,1009.55
2016-06-03T00:05:50.278Z,1009.54
2016-06-03T00:06:50.297Z,1009.51
2016-06-03T00:07:50.331Z,1009.53
2016-06-03T00:08:50.349Z,1009.52
2016-06-03T00:09:50.383Z,1009.51
2016-06-03T00:10:50.400Z,1009.49
2016-06-03T00:11:50.420Z,1009.51
2016-06-03T00:12:50.453Z,1009.48
2016-06-03T00:13:50.472Z,1009.48
2016-06-03T00:14:50.506Z,1009.45
2016-06-03T00:15:50.524Z,1009.43
2016-06-03T00:16:50.558Z,1009.4
2016-06-03T00:17:50.577Z,1009.41
2016-06-03T00:18:50.595Z,1009.36
2016-06-03T00:19:50.630Z,1009.38
2016-06-03T00:20:50.646Z,1009.43
2016-06-03T00:21:50.681Z,1009.42
2016-06-03T00:22:50.699Z,1009.42
2016-06-03T00:23:50.733Z,1009.4
2016-06-03T00:24:50.751Z,1009.4
2016-06-03T00:25:50.785Z,1009.41
2016-06-03T00:26:50.804Z,1009.41
2016-06-03T00:27:50.821Z,1009.41
2016-06-03T00:28:50.857Z,1009.46
2016-06-03T00:29:50.874Z,1009.43
2016-06-03T00:30:50.908Z,1009.4
2016-06-03T00:31:50.927Z,1009.39
2016-06-03T00:32:50.960Z,1009.39
2016-06-03T00:33:50.979Z,1009.37
2016-06-03T00:34:50.997Z,1009.35
2016-06-03T00:35:51.031Z,1009.39
2016-06-03T00:36:51.065Z,1009.4
2016-06-03T00:37:51.083Z,1009.44
2016-06-03T00:38:51.101Z,1009.42
2016-06-03T00:39:51.136Z,1009.46
2016-06-03T00:40:51.498Z,1009.44
2016-06-03T00:41:51.189Z,1009.47
2016-06-03T00:42:51.206Z,1009.45
2016-06-03T00:43:51.224Z,1009.46
2016-06-03T00:44:51.258Z,1009.48
2016-06-03T00:45:51.277Z,1009.51
2016-06-03T00:46:51.310Z,1009.46
2016-06-03T00:47:51.330Z,1009.52
2016-06-03T00:48:51.363Z,1009.49
2016-06-03T00:49:51.381Z,1009.52
2016-06-03T00:50:51.399Z,1009.56
2016-06-03T00:51:51.433Z,1009.54
2016-06-03T00:52:51.452Z,1009.57
2016-06-03T00:53:51.485Z,1009.58
2016-06-03T00:54:51.926Z,1009.56
2016-06-03T00:55:51.538Z,1009.57
2016-06-03T00:56:51.557Z,1009.53
2016-06-03T00:57:51.575Z,1009.56
2016-06-03T00:58:51.609Z,1009.51
2016-06-03T00:59:51.626Z,1009.54
2016-06-03T01:00:51.660Z,1009.53
2016-06-03T01:01:51.679Z,1009.54
2016-06-03T01:02:51.713Z,1009.58
2016-06-03T01:03:51.731Z,1009.55
2016-06-03T01:04:51.750Z,1009.54
2016-06-03T01:05:51.784Z,1009.48
2016-06-03T01:06:51.818Z,1009.54
2016-06-03T01:07:51.837Z,1009.43
2016-06-03T01:08:51.854Z,1009.49
2016-06-03T01:09:51.889Z,1009.48
2016-06-03T01:10:51.906Z,1009.44
2016-06-03T01:11:51.940Z,1009.42
2016-06-03T01:12:51.958Z,1009.42
2016-06-03T01:13:51.977Z,1009.39
2016-06-03T01:14:52.011Z,1009.39
2016-06-03T01:15:52.030Z,1009.39
2016-06-03T01:16:52.063Z,1009.44
2016-06-03T01:17:52.081Z,1009.37
2016-06-03T01:18:52.116Z,1009.4
2016-06-03T01:19:52.133Z,1009.4
2016-06-03T01:20:52.152Z,1009.38
2016-06-03T01:21:52.186Z,1009.38
2016-06-03T01:22:52.205Z,1009.37
2016-06-03T01:23:52.238Z,1009.39
2016-06-03T01:24:52.257Z,1009.38
2016-06-03T01:25:52.291Z,1009.38
2016-06-03T01:26:52.309Z,1009.4
2016-06-03T01:27:52.327Z,1009.4
2016-06-03T01:28:52.360Z,1009.37
2016-06-03T01:29:52.379Z,1009.35
2016-06-03T01:30:52.413Z,1009.43
2016-06-03T01:31:52.432Z,1009.35
2016-06-03T01:32:52.465Z,1009.39
2016-06-03T01:33:52.484Z,1009.36
2016-06-03T01:34:52.518Z,1009.38
2016-06-03T01:35:52.536Z,1009.37
2016-06-03T01:36:52.554Z,1009.36
2016-06-03T01:37:52.589Z,1009.33
2016-06-03T01:38:52.606Z,1009.35
2016-06-03T01:39:52.876Z,1009.34
2016-06-03T01:40:52.659Z,1009.31
2016-06-03T01:41:52.692Z,1009.32
2016-06-03T01:42:52.711Z,1009.34
2016-06-03T01:43:52.730Z,1009.29
2016-06-03T01:44:52.764Z,1009.33
2016-06-03T01:45:52.781Z,1009.32
2016-06-03T01:46:52.816Z,1009.32
2016-06-03T01:47:52.834Z,1009.31
2016-06-03T01:48:52.868Z,1009.3
2016-06-03T01:49:52.886Z,1009.29
2016-06-03T01:50:52.905Z,1009.32
2016-06-03T01:51:52.939Z,1009.29
2016-06-03T01:52:52.958Z,1009.3
2016-06-03T01:53:52.990Z,1009.32
2016-06-03T01:54:53.009Z,1009.31
2016-06-03T01:55:53.043Z,1009.34
2016-06-03T01:56:53.061Z,1009.3
2016-06-03T01:57:53.079Z,1009.31
2016-06-03T01:58:53.113Z,1009.33
2016-06-03T01:59:53.132Z,1009.32
2016-06-03T02:00:53.166Z,1009.36
2016-06-03T02:01:53.184Z,1009.34
2016-06-03T02:02:53.219Z,1009.33
2016-06-03T02:03:53.237Z,1009.39
2016-06-03T02:04:53.254Z,1009.41
2016-06-03T02:05:53.289Z,1009.41
2016-06-03T02:06:53.307Z,1009.43
2016-06-03T02:07:53.340Z,1009.41
2016-06-03T02:08:53.360Z,1009.45
2016-06-03T02:09:53.987Z,1009.44
2016-06-03T02:10:53.553Z,1009.48
2016-06-03T02:11:53.430Z,1009.44
2016-06-03T02:12:53.464Z,1009.45
2016-06-03T02:13:53.482Z,1009.46
2016-06-03T02:14:53.517Z,1009.42
2016-06-03T02:15:53.534Z,1009.45
2016-06-03T02:16:53.569Z,1009.46
2016-06-03T02:17:53.586Z,1009.42
2016-06-03T02:18:53.605Z,1009.42
2016-06-03T02:19:53.639Z,1009.42
2016-06-03T02:20:53.657Z,1009.42
2016-06-03T02:21:53.691Z,1009.41
2016-06-03T02:22:53.710Z,1009.44
2016-06-03T02:23:53.743Z,1009.44
2016-06-03T02:24:53.855Z,1009.42
2016-06-03T02:25:53.780Z,1009.44
2016-06-03T02:26:53.813Z,1009.39
2016-06-03T02:27:53.832Z,1009.4
2016-06-03T02:28:53.866Z,1009.41
2016-06-03T02:29:53.885Z,1009.44
2016-06-03T02:30:53.919Z,1009.42
2016-06-03T02:31:53.937Z,1009.39
2016-06-03T02:32:53.971Z,1009.42
2016-06-03T02:33:53.990Z,1009.42
2016-06-03T02:34:54.008Z,1009.41
2016-06-03T02:35:54.041Z,1009.39
2016-06-03T02:36:54.060Z,1009.39
2016-06-03T02:37:54.093Z,1009.44
2016-06-03T02:38:54.112Z,1009.46
2016-06-03T02:39:54.131Z,1009.43
2016-06-03T02:40:54.164Z,1009.46
2016-06-03T02:41:54.182Z,1009.45
2016-06-03T02:42:54.217Z,1009.44
2016-06-03T02:43:54.234Z,1009.46
2016-06-03T02:44:54.269Z,1009.44
2016-06-03T02:45:54.287Z,1009.46
2016-06-03T02:46:54.321Z,1009.38
2016-06-03T02:47:54.339Z,1009.42
2016-06-03T02:48:54.357Z,1009.4
2016-06-03T02:49:54.391Z,1009.42
2016-06-03T02:50:54.410Z,1009.39
2016-06-03T02:51:54.444Z,1009.41
2016-06-03T02:52:54.461Z,1009.38
2016-06-03T02:53:54.480Z,1009.39
2016-06-03T02:54:54.514Z,1009.4
2016-06-03T02:55:54.533Z,1009.38
2016-06-03T02:56:54.566Z,1009.33
2016-06-03T02:57:54.585Z,1009.3
2016-06-03T02:58:54.619Z,1009.33
2016-06-03T02:59:54.638Z,1009.34
2016-06-03T03:00:54.671Z,1009.31
2016-06-03T03:01:54.705Z,1009.33
2016-06-03T03:02:54.707Z,1009.34
2016-06-03T03:03:54.741Z,1009.35
2016-06-03T03:04:54.760Z,1009.29
2016-06-03T03:05:54.793Z,1009.34
2016-06-03T03:06:54.813Z,1009.28
2016-06-03T03:07:54.831Z,1009.31
2016-06-03T03:08:54.864Z,1009.26
2016-06-03T03:09:54.898Z,1009.26
2016-06-03T03:10:54.917Z,1009.29
2016-06-03T03:11:54.935Z,1009.26
2016-06-03T03:12:54.970Z,1009.25
2016-06-03T03:13:54.987Z,1009.25
2016-06-03T03:14:55.006Z,1009.24
2016-06-03T03:15:55.039Z,1009.25
2016-06-03T03:16:55.058Z,1009.25
2016-06-03T03:17:55.092Z,1009.28
2016-06-03T03:18:55.110Z,1009.29
2016-06-03T03:19:55.128Z,1009.27
2016-06-03T03:20:55.177Z,1009.31
2016-06-03T03:21:55.181Z,1009.34
2016-06-03T03:22:55.215Z,1009.36
2016-06-03T03:23:55.233Z,1009.36
2016-06-03T03:24:55.470Z,1009.38
2016-06-03T03:25:55.286Z,1009.4
2016-06-03T03:26:55.319Z,1009.41
2016-06-03T03:27:55.337Z,1009.41
2016-06-03T03:28:55.355Z,1009.39
2016-06-03T03:29:55.390Z,1009.42
2016-06-03T03:30:55.407Z,1009.37
2016-06-03T03:31:55.442Z,1009.41
2016-06-03T03:32:55.460Z,1009.4
2016-06-03T03:33:55.479Z,1009.38
2016-06-03T03:34:55.512Z,1009.44
2016-06-03T03:35:55.532Z,1009.43
2016-06-03T03:36:55.564Z,1009.47
2016-06-03T03:37:55.582Z,1009.43
2016-06-03T03:38:55.617Z,1009.45
2016-06-03T03:39:55.651Z,1009.42
2016-06-03T03:40:55.873Z,1009.43
2016-06-03T03:41:55.687Z,1009.46
2016-06-03T03:42:55.706Z,1009.48
2016-06-03T03:43:55.739Z,1009.45
2016-06-03T03:44:55.759Z,1009.49
2016-06-03T03:45:55.792Z,1009.49
2016-06-03T03:46:55.811Z,1009.48
2016-06-03T03:47:55.828Z,1009.51
2016-06-03T03:48:55.862Z,1009.49
2016-06-03T03:49:55.881Z,1009.48
2016-06-03T03:50:55.915Z,1009.51
2016-06-03T03:51:55.934Z,1009.47
2016-06-03T03:52:55.967Z,1009.44
2016-06-03T03:53:55.986Z,1009.48
2016-06-03T03:54:56.894Z,1009.45
2016-06-03T03:55:56.038Z,1009.41
2016-06-03T03:56:56.055Z,1009.43
2016-06-03T03:57:56.091Z,1009.41
2016-06-03T03:58:56.108Z,1009.4
2016-06-03T03:59:56.127Z,1009.42
2016-06-03T04:00:56.161Z,1009.42
2016-06-03T04:01:56.180Z,1009.43
2016-06-03T04:02:56.213Z,1009.41
2016-06-03T04:03:56.231Z,1009.41
2016-06-03T04:04:56.265Z,1009.38
2016-06-03T04:05:56.315Z,1009.42
2016-06-03T04:06:56.301Z,1009.37
2016-06-03T04:07:56.336Z,1009.37
2016-06-03T04:08:56.354Z,1009.38
2016-06-03T04:09:56.653Z,1009.38
2016-06-03T04:10:56.687Z,1009.34
2016-06-03T04:11:56.440Z,1009.38
2016-06-03T04:12:56.474Z,1009.37
2016-06-03T04:13:56.477Z,1009.38
2016-06-03T04:14:56.511Z,1009.36
2016-06-03T04:15:56.528Z,1009.39
2016-06-03T04:16:56.562Z,1009.39
2016-06-03T04:17:56.581Z,1009.4
2016-06-03T04:18:56.600Z,1009.44
2016-06-03T04:19:56.634Z,1009.39
2016-06-03T04:20:56.652Z,1009.38
2016-06-03T04:21:56.686Z,1009.45
2016-06-03T04:22:56.704Z,1009.41
2016-06-03T04:23:56.739Z,1009.39
2016-06-03T04:24:56.756Z,1009.39
2016-06-03T04:25:56.775Z,1009.38
2016-06-03T04:26:56.808Z,1009.38
2016-06-03T04:27:56.827Z,1009.38
2016-06-03T04:28:56.877Z,1009.41
2016-06-03T04:29:56.880Z,1009.4
2016-06-03T04:30:56.913Z,1009.45
2016-06-03T04:31:56.932Z,1009.42
2016-06-03T04:32:56.950Z,1009.46
2016-06-03T04:33:56.984Z,1009.45
2016-06-03T04:34:57.002Z,1009.44
2016-06-03T04:35:57.036Z,1009.45
2016-06-03T04:36:57.054Z,1009.42
2016-06-03T04:37:57.088Z,1009.44
2016-06-03T04:38:57.106Z,1009.43
2016-06-03T04:39:57.125Z,1009.43
2016-06-03T04:40:57.159Z,1009.37
2016-06-03T04:41:57.177Z,1009.4
2016-06-03T04:42:57.211Z,1009.41
2016-06-03T04:43:57.229Z,1009.39
2016-06-03T04:44:57.263Z,1009.4
2016-06-03T04:45:57.281Z,1009.43
2016-06-03T04:46:57.301Z,1009.45
2016-06-03T04:47:57.334Z,1009.45
2016-06-03T04:48:57.352Z,1009.42
2016-06-03T04:49:57.386Z,1009.43
2016-06-03T04:50:57.404Z,1009.4
2016-06-03T04:51:57.439Z,1009.4
2016-06-03T04:52:57.456Z,1009.42
2016-06-03T04:53:57.475Z,1009.39
2016-06-03T04:54:57.509Z,1009.42
2016-06-03T04:55:57.528Z,1009.41
2016-06-03T04:56:57.561Z,1009.46
2016-06-03T04:57:57.580Z,1009.44
2016-06-03T04:58:57.598Z,1009.45
2016-06-03T04:59:57.632Z,1009.5
2016-06-03T05:00:57.649Z,1009.46
2016-06-03T05:01:57.684Z,1009.47
2016-06-03T05:02:57.702Z,1009.47
2016-06-03T05:03:57.721Z,1009.47
2016-06-03T05:04:57.754Z,1009.49
2016-06-03T05:05:57.773Z,1009.44
2016-06-03T05:06:57.807Z,1009.46
2016-06-03T05:07:57.825Z,1009.48
2016-06-03T05:08:57.859Z,1009.45
2016-06-03T05:09:57.877Z,1009.45
2016-06-03T05:10:57.912Z,1009.47
2016-06-03T05:11:57.930Z,1009.45
2016-06-03T05:12:57.948Z,1009.47
2016-06-03T05:13:57.982Z,1009.47
2016-06-03T05:14:58.001Z,1009.45
2016-06-03T05:15:58.034Z,1009.44
2016-06-03T05:16:58.052Z,1009.48
2016-06-03T05:17:58.070Z,1009.48
2016-06-03T05:18:58.104Z,1009.45
2016-06-03T05:19:58.123Z,1009.48
2016-06-03T05:20:58.156Z,1009.48
2016-06-03T05:21:58.175Z,1009.5
2016-06-03T05:22:58.209Z,1009.55
2016-06-03T05:23:58.228Z,1009.54
2016-06-03T05:24:58.745Z,1009.57
2016-06-03T05:25:58.295Z,1009.55
2016-06-03T05:26:58.298Z,1009.56
2016-06-03T05:27:58.333Z,1009.57
2016-06-03T05:28:58.350Z,1009.59
2016-06-03T05:29:58.384Z,1009.59
2016-06-03T05:30:58.403Z,1009.54
2016-06-03T05:31:58.422Z,1009.58
2016-06-03T05:32:58.454Z,1009.65
2016-06-03T05:33:58.473Z,1009.62
2016-06-03T05:34:58.507Z,1009.63
2016-06-03T05:35:58.525Z,1009.64
2016-06-03T05:36:58.543Z,1009.61
2016-06-03T05:37:58.577Z,1009.62
2016-06-03T05:38:58.596Z,1009.61
2016-06-03T05:39:58.693Z,1009.64
2016-06-03T05:40:59.304Z,1009.71
2016-06-03T05:41:58.682Z,1009.69
2016-06-03T05:42:58.701Z,1009.68
2016-06-03T05:43:58.735Z,1009.71
2016-06-03T05:44:58.753Z,1009.73
2016-06-03T05:45:58.771Z,1009.73
2016-06-03T05:46:58.805Z,1009.74
2016-06-03T05:47:58.824Z,1009.8
2016-06-03T05:48:58.857Z,1009.78
2016-06-03T05:49:58.876Z,1009.78
2016-06-03T05:50:58.895Z,1009.78
2016-06-03T05:51:58.928Z,1009.77
2016-06-03T05:52:58.945Z,1009.79
2016-06-03T05:53:58.980Z,1009.8
2016-06-03T05:54:59.233Z,1009.77
2016-06-03T05:55:59.016Z,1009.83
2016-06-03T05:56:59.050Z,1009.82
2016-06-03T05:57:59.069Z,1009.84
2016-06-03T05:58:59.103Z,1009.86
2016-06-03T05:59:59.121Z,1009.85
2016-06-03T06:00:59.171Z,1009.86
2016-06-03T06:01:59.174Z,1009.87
2016-06-03T06:02:59.192Z,1009.84
2016-06-03T06:03:59.225Z,1009.88
2016-06-03T06:04:59.244Z,1009.87
2016-06-03T06:05:59.278Z,1009.85
2016-06-03T06:06:59.297Z,1009.87
2016-06-03T06:07:59.330Z,1009.92
2016-06-03T06:08:59.349Z,1009.88
2016-06-03T06:09:59.398Z,1009.85
2016-06-03T06:10:59.402Z,1009.85
2016-06-03T06:11:59.418Z,1009.85
2016-06-03T06:12:59.453Z,1009.86
2016-06-03T06:13:59.471Z,1009.87
2016-06-03T06:14:59.505Z,1009.88
2016-06-03T06:15:59.523Z,1009.87
2016-06-03T06:16:59.542Z,1009.82
2016-06-03T06:17:59.576Z,1009.85
2016-06-03T06:18:59.610Z,1009.84
2016-06-03T06:19:59.628Z,1009.84
2016-06-03T06:20:59.646Z,1009.83
2016-06-03T06:21:59.681Z,1009.84
2016-06-03T06:22:59.699Z,1009.85
2016-06-03T06:23:59.733Z,1009.82
2016-06-03T06:24:59.751Z,1009.81
2016-06-03T06:25:59.770Z,1009.77
2016-06-03T06:26:59.804Z,1009.84
2016-06-03T06:27:59.836Z,1009.77
2016-06-03T06:28:59.855Z,1009.83
2016-06-03T06:29:59.874Z,1009.81
2016-06-03T06:30:59.908Z,1009.8
2016-06-03T06:31:59.925Z,1009.81
2016-06-03T06:32:59.960Z,1009.79
2016-06-03T06:33:59.978Z,1009.78
2016-06-03T06:34:59.997Z,1009.84
2016-06-03T06:36:00.030Z,1009.85
2016-06-03T06:37:00.049Z,1009.88
2016-06-03T06:38:00.083Z,1009.87
2016-06-03T06:39:00.101Z,1009.87
2016-06-03T06:40:00.136Z,1009.88
2016-06-03T06:41:00.341Z,1009.88
2016-06-03T06:42:00.171Z,1009.89
2016-06-03T06:43:00.205Z,1009.95
2016-06-03T06:44:00.224Z,1009.96
2016-06-03T06:45:00.257Z,1009.99
2016-06-03T06:46:00.292Z,1009.98
2016-06-03T06:47:00.319Z,1010.01
2016-06-03T06:48:00.380Z,1010.03
2016-06-03T06:49:00.425Z,1010.03
2016-06-03T06:50:00.487Z,1010.05
2016-06-03T06:51:00.532Z,1010.03
2016-06-03T06:52:00.579Z,1010.09
2016-06-03T06:53:00.606Z,1010.06
2016-06-03T06:54:00.649Z,1010.07
2016-06-03T06:55:00.679Z,1010.09
2016-06-03T06:56:01.192Z,1010.08
2016-06-03T06:57:00.745Z,1010.12
2016-06-03T06:58:00.767Z,1010.12
2016-06-03T06:59:00.804Z,1010.14
2016-06-03T07:00:00.826Z,1010.14
2016-06-03T07:01:00.864Z,1010.14
2016-06-03T07:02:00.883Z,1010.17
2016-06-03T07:03:00.903Z,1010.22
2016-06-03T07:04:00.937Z,1010.21
2016-06-03T07:05:00.957Z,1010.24
2016-06-03T07:06:00.992Z,1010.23
2016-06-03T07:07:01.011Z,1010.24
2016-06-03T07:08:01.046Z,1010.28
2016-06-03T07:09:01.066Z,1010.26
2016-06-03T07:10:01.928Z,1010.26
2016-06-03T07:11:01.119Z,1010.29
2016-06-03T07:12:01.137Z,1010.26
2016-06-03T07:13:01.171Z,1010.27
2016-06-03T07:14:01.206Z,1010.29
2016-06-03T07:15:01.223Z,1010.34
2016-06-03T07:16:01.242Z,1010.3
2016-06-03T07:17:01.275Z,1010.32
2016-06-03T07:18:01.294Z,1010.42
2016-06-03T07:19:01.312Z,1010.38
2016-06-03T07:20:01.346Z,1010.36
2016-06-03T07:21:01.364Z,1010.41
2016-06-03T07:22:01.398Z,1010.42
2016-06-03T07:23:01.417Z,1010.41
2016-06-03T07:24:01.450Z,1010.4
2016-06-03T07:25:01.470Z,1010.41
2016-06-03T07:26:01.503Z,1010.43
2016-06-03T07:27:01.522Z,1010.44
2016-06-03T07:28:01.539Z,1010.41
2016-06-03T07:29:01.574Z,1010.42
2016-06-03T07:30:01.592Z,1010.38
2016-06-03T07:31:01.627Z,1010.41
2016-06-03T07:32:01.644Z,1010.43
2016-06-03T07:33:01.678Z,1010.43
2016-06-03T07:34:01.696Z,1010.4
2016-06-03T07:35:01.730Z,1010.39
2016-06-03T07:36:01.749Z,1010.39
2016-06-03T07:37:01.783Z,1010.36
2016-06-03T07:38:01.801Z,1010.4
2016-06-03T07:39:01.819Z,1010.41
2016-06-03T07:40:01.854Z,1010.36
2016-06-03T07:41:01.872Z,1010.34
2016-06-03T07:42:01.906Z,1010.37
2016-06-03T07:43:01.923Z,1010.37
2016-06-03T07:44:01.942Z,1010.33
2016-06-03T07:45:01.976Z,1010.32
2016-06-03T07:46:01.995Z,1010.37
2016-06-03T07:47:02.028Z,1010.37
2016-06-03T07:48:02.047Z,1010.37
2016-06-03T07:49:02.081Z,1010.4
2016-06-03T07:50:02.098Z,1010.42
2016-06-03T07:51:02.133Z,1010.45
2016-06-03T07:52:02.151Z,1010.41
2016-06-03T07:53:02.185Z,1010.42
2016-06-03T07:54:02.203Z,1010.44
2016-06-03T07:55:02.612Z,1010.39
2016-06-03T07:56:02.256Z,1010.36
2016-06-03T07:57:02.274Z,1010.37
2016-06-03T07:58:02.308Z,1010.36
2016-06-03T07:59:02.326Z,1010.36
2016-06-03T08:00:02.360Z,1010.33
2016-06-03T08:01:02.378Z,1010.36
2016-06-03T08:02:02.412Z,1010.35
2016-06-03T08:03:02.431Z,1010.31
2016-06-03T08:04:02.465Z,1010.31
2016-06-03T08:05:02.483Z,1010.3
2016-06-03T08:06:02.501Z,1010.3
2016-06-03T08:07:02.535Z,1010.3
2016-06-03T08:08:02.554Z,1010.24
2016-06-03T08:09:02.587Z,1010.28
2016-06-03T08:10:02.606Z,1010.3
2016-06-03T08:11:02.640Z,1010.29
2016-06-03T08:12:02.658Z,1010.3
2016-06-03T08:13:02.692Z,1010.3
2016-06-03T08:14:02.710Z,1010.32
2016-06-03T08:15:02.729Z,1010.29
2016-06-03T08:16:02.762Z,1010.29
2016-06-03T08:17:02.812Z,1010.29
2016-06-03T08:18:02.815Z,1010.27
2016-06-03T08:19:02.833Z,1010.28
2016-06-03T08:20:02.867Z,1010.28
2016-06-03T08:21:02.886Z,1010.31
2016-06-03T08:22:02.919Z,1010.31
2016-06-03T08:23:02.937Z,1010.3
2016-06-03T08:24:02.972Z,1010.3
2016-06-03T08:25:03.318Z,1010.26
2016-06-03T08:26:03.180Z,1010.27
2016-06-03T08:27:03.042Z,1010.28
2016-06-03T08:28:03.076Z,1010.26
2016-06-03T08:29:03.094Z,1010.29
2016-06-03T08:30:03.128Z,1010.28
2016-06-03T08:31:03.147Z,1010.31
2016-06-03T08:32:03.165Z,1010.3
2016-06-03T08:33:03.199Z,1010.36
2016-06-03T08:34:03.216Z,1010.33
2016-06-03T08:35:03.252Z,1010.36
2016-06-03T08:36:03.269Z,1010.34
2016-06-03T08:37:03.304Z,1010.29
2016-06-03T08:38:03.322Z,1010.29
2016-06-03T08:39:03.355Z,1010.3
2016-06-03T08:40:03.374Z,1010.28
2016-06-03T08:41:03.407Z,1010.24
2016-06-03T08:42:03.426Z,1010.27
2016-06-03T08:43:03.460Z,1010.29
2016-06-03T08:44:03.478Z,1010.27
2016-06-03T08:45:03.513Z,1010.26
2016-06-03T08:46:03.531Z,1010.27
2016-06-03T08:47:03.548Z,1010.27
2016-06-03T08:48:03.584Z,1010.28
2016-06-03T08:49:03.601Z,1010.29
2016-06-03T08:50:03.635Z,1010.3
2016-06-03T08:51:03.654Z,1010.29
2016-06-03T08:52:03.703Z,1010.32
2016-06-03T08:53:03.721Z,1010.29
2016-06-03T08:54:03.740Z,1010.32
2016-06-03T08:55:04.633Z,1010.28
2016-06-03T08:56:03.792Z,1010.32
2016-06-03T08:57:03.811Z,1010.38
2016-06-03T08:58:03.844Z,1010.37
2016-06-03T08:59:03.863Z,1010.38
2016-06-03T09:00:03.897Z,1010.4
2016-06-03T09:01:03.914Z,1010.37
2016-06-03T09:02:03.949Z,1010.37
2016-06-03T09:03:03.967Z,1010.38
2016-06-03T09:04:04.002Z,1010.4
2016-06-03T09:05:04.020Z,1010.34
2016-06-03T09:06:04.053Z,1010.43
2016-06-03T09:07:04.071Z,1010.36
2016-06-03T09:08:04.105Z,1010.32
2016-06-03T09:09:04.124Z,1010.37
2016-06-03T09:10:04.158Z,1010.37
2016-06-03T09:11:04.176Z,1010.34
2016-06-03T09:12:04.210Z,1010.36
2016-06-03T09:13:04.229Z,1010.37
2016-06-03T09:14:04.263Z,1010.4
2016-06-03T09:15:04.281Z,1010.37
2016-06-03T09:16:04.440Z,1010.39
2016-06-03T09:17:04.333Z,1010.4
2016-06-03T09:18:04.368Z,1010.38
2016-06-03T09:19:04.385Z,1010.42
2016-06-03T09:20:04.420Z,1010.4
2016-06-03T09:21:04.437Z,1010.41
2016-06-03T09:22:04.471Z,1010.39
2016-06-03T09:23:04.490Z,1010.37
2016-06-03T09:24:04.509Z,1010.37
2016-06-03T09:25:04.542Z,1010.39
2016-06-03T09:26:04.575Z,1010.36
2016-06-03T09:27:04.595Z,1010.37
2016-06-03T09:28:04.628Z,1010.41
2016-06-03T09:29:04.646Z,1010.35
2016-06-03T09:30:04.681Z,1010.39
2016-06-03T09:31:04.699Z,1010.38
2016-06-03T09:32:04.763Z,1010.37
2016-06-03T09:33:04.750Z,1010.33
2016-06-03T09:34:04.786Z,1010.32
2016-06-03T09:35:04.803Z,1010.3
2016-06-03T09:36:04.838Z,1010.31
2016-06-03T09:37:04.855Z,1010.33
2016-06-03T09:38:04.889Z,1010.32
2016-06-03T09:39:04.908Z,1010.35
2016-06-03T09:40:05.035Z,1010.31
2016-06-03T09:41:04.960Z,1010.34
2016-06-03T09:42:04.994Z,1010.34
2016-06-03T09:43:05.028Z,1010.35
2016-06-03T09:44:05.047Z,1010.35
2016-06-03T09:45:05.065Z,1010.38
2016-06-03T09:46:05.098Z,1010.35
2016-06-03T09:47:05.118Z,1010.4
2016-06-03T09:48:05.150Z,1010.52
2016-06-03T09:49:05.185Z,1010.35
2016-06-03T09:50:05.203Z,1010.4
2016-06-03T09:51:05.221Z,1010.42
2016-06-03T09:52:05.256Z,1010.4
2016-06-03T09:53:05.273Z,1010.44
2016-06-03T09:54:05.307Z,1010.44
2016-06-03T09:55:05.654Z,1010.4
2016-06-03T09:56:05.359Z,1010.39
2016-06-03T09:57:05.378Z,1010.39
2016-06-03T09:58:05.411Z,1010.39
2016-06-03T09:59:05.445Z,1010.4
2016-06-03T10:00:05.465Z,1010.37
2016-06-03T10:01:05.498Z,1010.33
2016-06-03T10:02:05.517Z,1010.36
2016-06-03T10:03:05.550Z,1010.37
2016-06-03T10:04:05.569Z,1010.38
2016-06-03T10:05:05.602Z,1010.36
2016-06-03T10:06:05.622Z,1010.38
2016-06-03T10:07:05.655Z,1010.39
2016-06-03T10:08:05.673Z,1010.41
2016-06-03T10:09:05.723Z,1010.38
2016-06-03T10:10:05.757Z,1010.4
2016-06-03T10:11:05.760Z,1010.4
2016-06-03T10:12:05.778Z,1010.34
2016-06-03T10:13:05.812Z,1010.36
2016-06-03T10:14:05.846Z,1010.34
2016-06-03T10:15:05.863Z,1010.36
2016-06-03T10:16:05.898Z,1010.39
2016-06-03T10:17:05.916Z,1010.33
2016-06-03T10:18:05.951Z,1010.36
2016-06-03T10:19:05.968Z,1010.33
2016-06-03T10:20:06.002Z,1010.36
2016-06-03T10:21:06.021Z,1010.31
2016-06-03T10:22:06.054Z,1010.33
2016-06-03T10:23:06.089Z,1010.31
2016-06-03T10:24:06.106Z,1010.31
2016-06-03T10:25:06.281Z,1010.32
2016-06-03T10:26:06.160Z,1010.34
2016-06-03T10:27:06.193Z,1010.32
2016-06-03T10:28:06.212Z,1010.36
2016-06-03T10:29:06.245Z,1010.36
2016-06-03T10:30:06.279Z,1010.37
2016-06-03T10:31:06.298Z,1010.34
2016-06-03T10:32:06.331Z,1010.35
2016-06-03T10:33:06.350Z,1010.32
2016-06-03T10:34:06.383Z,1010.36
2016-06-03T10:35:06.417Z,1010.33
2016-06-03T10:36:09.436Z,1010.35
2016-06-03T10:37:06.454Z,1010.34
2016-06-03T10:38:06.489Z,1010.35
2016-06-03T10:39:06.522Z,1010.38
2016-06-03T10:40:06.541Z,1010.41
2016-06-03T10:41:06.574Z,1010.42
2016-06-03T10:42:06.608Z,1010.42
2016-06-03T10:43:06.627Z,1010.45
2016-06-03T10:44:06.660Z,1010.46
2016-06-03T10:45:06.679Z,1010.46
2016-06-03T10:46:06.713Z,1010.49
2016-06-03T10:47:06.732Z,1010.49
2016-06-03T10:48:06.765Z,1010.5
2016-06-03T10:49:06.799Z,1010.51
2016-06-03T10:50:06.818Z,1010.51
2016-06-03T10:51:06.852Z,1010.52
2016-06-03T10:52:06.870Z,1010.57
2016-06-03T10:53:06.919Z,1010.57
2016-06-03T10:54:06.938Z,1010.57
2016-06-03T10:55:07.112Z,1010.57
2016-06-03T10:56:07.256Z,1010.56
2016-06-03T10:57:07.009Z,1010.56
2016-06-03T10:58:07.042Z,1010.6
2016-06-03T10:59:07.061Z,1010.61
2016-06-03T11:00:07.094Z,1010.61
2016-06-03T11:01:07.128Z,1010.6
2016-06-03T11:02:07.162Z,1010.59
2016-06-03T11:03:07.181Z,1010.6
2016-06-03T11:04:07.214Z,1010.6
2016-06-03T11:05:07.280Z,1010.61
2016-06-03T11:06:07.250Z,1010.66
2016-06-03T11:07:07.285Z,1010.61
2016-06-03T11:08:07.319Z,1010.61
2016-06-03T11:09:07.338Z,1010.58
2016-06-03T11:10:07.386Z,1010.6
2016-06-03T11:11:07.405Z,1010.6
2016-06-03T11:12:07.424Z,1010.57
2016-06-03T11:13:07.441Z,1010.54
2016-06-03T11:14:07.476Z,1010.55
2016-06-03T11:15:07.493Z,1010.55
2016-06-03T11:16:07.527Z,1010.52
2016-06-03T11:17:07.562Z,1010.5
2016-06-03T11:18:07.580Z,1010.56
2016-06-03T11:19:07.615Z,1010.5
2016-06-03T11:20:07.632Z,1010.55
2016-06-03T11:21:07.666Z,1010.52
2016-06-03T11:22:07.685Z,1010.58
2016-06-03T11:23:07.718Z,1010.54
2016-06-03T11:24:07.753Z,1010.51
2016-06-03T11:25:08.505Z,1010.54
2016-06-03T11:26:07.805Z,1010.52
2016-06-03T11:27:07.824Z,1010.56
2016-06-03T11:28:07.857Z,1010.54
2016-06-03T11:29:07.876Z,1010.58
2016-06-03T11:30:07.909Z,1010.55
2016-06-03T11:31:07.928Z,1010.55
2016-06-03T11:32:07.961Z,1010.56
2016-06-03T11:33:07.995Z,1010.58
2016-06-03T11:34:08.014Z,1010.57
2016-06-03T11:35:08.048Z,1010.54
2016-06-03T11:36:08.067Z,1010.54
2016-06-03T11:37:08.100Z,1010.55
2016-06-03T11:38:08.119Z,1010.55
2016-06-03T11:39:08.153Z,1010.54
2016-06-03T11:40:08.202Z,1010.58
2016-06-03T11:41:08.736Z,1010.56
2016-06-03T11:42:08.239Z,1010.56
2016-06-03T11:43:08.257Z,1010.57
2016-06-03T11:44:08.291Z,1010.57
2016-06-03T11:45:08.309Z,1010.62
2016-06-03T11:46:08.343Z,1010.62
2016-06-03T11:47:08.361Z,1010.6
2016-06-03T11:48:08.396Z,1010.62
2016-06-03T11:49:08.430Z,1010.63
2016-06-03T11:50:08.448Z,1010.58
2016-06-03T11:51:08.482Z,1010.6
2016-06-03T11:52:08.499Z,1010.61
2016-06-03T11:53:08.534Z,1010.59
2016-06-03T11:54:08.551Z,1010.57
2016-06-03T11:55:08.586Z,1010.59
2016-06-03T11:56:08.620Z,1010.57
2016-06-03T11:57:08.638Z,1010.56
2016-06-03T11:58:08.673Z,1010.54
2016-06-03T11:59:08.690Z,1010.54
2016-06-03T12:00:08.725Z,1010.5
2016-06-03T12:01:08.759Z,1010.51
2016-06-03T12:02:08.776Z,1010.52
2016-06-03T12:03:08.811Z,1010.53
2016-06-03T12:04:08.828Z,1010.48
2016-06-03T12:05:08.864Z,1010.48
2016-06-03T12:06:08.881Z,1010.48
2016-06-03T12:07:08.914Z,1010.55
2016-06-03T12:08:08.949Z,1010.48